createdAt,value
2023-05-19T00:02:05.043Z,102384.34
2023-05-19T00:05:07.629Z,102383.28
2023-05-19T00:08:10.954Z,102383.28
2023-05-19T00:11:12.875Z,102381.41
2023-05-19T00:14:14.641Z,102383.50
2023-05-19T00:17:17.370Z,102380.75
2023-05-19T00:20:19.022Z,102366.66
2023-05-19T00:23:20.304Z,102378.88
2023-05-19T00:26:22.068Z,102376.34
2023-05-19T00:29:23.545Z,102379.69
2023-05-19T00:32:25.554Z,102371.06
2023-05-19T00:35:27.116Z,102372.94
2023-05-19T00:38:29.151Z,102386.66
2023-05-19T00:41:30.653Z,102381.16
2023-05-19T00:44:32.175Z,102373.53
2023-05-19T00:47:34.373Z,102381.94
2023-05-19T00:50:35.865Z,102372.84
2023-05-19T00:53:37.221Z,102372.47
2023-05-19T00:56:39.023Z,102378.75
2023-05-19T00:59:40.561Z,102380.19
2023-05-19T01:02:43.135Z,102379.13
2023-05-19T01:05:44.741Z,102376.34
2023-05-19T01:08:46.211Z,102374.03
2023-05-19T01:11:47.743Z,102371.72
2023-05-19T01:14:49.359Z,102361.63
2023-05-19T01:17:59.940Z,102371.47
2023-05-19T01:21:22.357Z,102365.41
2023-05-19T01:24:46.771Z,102376.50
2023-05-19T01:28:19.646Z,102373.34
2023-05-19T01:31:23.447Z,102369.97
2023-05-19T01:34:26.843Z,102368.88
2023-05-19T01:37:29.311Z,102378.41
2023-05-19T01:40:32.433Z,102379.19
2023-05-19T01:43:35.380Z,102377.59
2023-05-19T01:46:38.497Z,102374.09
2023-05-19T01:49:39.893Z,102381.66
2023-05-19T01:52:41.393Z,102383.59
2023-05-19T01:55:48.758Z,102380.03
2023-05-19T01:58:58.885Z,102385.88
2023-05-19T02:02:05.456Z,102388.13
2023-05-19T02:05:13.196Z,102388.00
2023-05-19T02:08:26.784Z,102387.75
2023-05-19T02:11:36.314Z,102382.22
2023-05-19T02:14:45.171Z,102388.28
2023-05-19T02:17:51.348Z,102386.84
2023-05-19T02:20:52.799Z,102385.94
2023-05-19T02:23:54.111Z,102387.97
2023-05-19T02:26:55.572Z,102379.72
2023-05-19T02:29:57.279Z,102383.50
2023-05-19T02:32:59.747Z,102377.19
2023-05-19T02:36:01.170Z,102382.91
2023-05-19T02:39:02.669Z,102366.22
2023-05-19T02:42:04.799Z,102372.75
2023-05-19T02:45:07.045Z,102367.09
2023-05-19T02:48:09.073Z,102378.50
2023-05-19T02:51:10.616Z,102375.28
2023-05-19T02:54:11.937Z,102384.31
2023-05-19T02:57:13.404Z,102370.97
2023-05-19T03:00:15.756Z,102374.44
2023-05-19T03:03:18.052Z,102371.53
2023-05-19T03:06:19.474Z,102364.00
2023-05-19T03:09:20.935Z,102362.97
2023-05-19T03:12:22.257Z,102365.44
2023-05-19T03:15:23.754Z,102361.47
2023-05-19T03:18:26.250Z,102369.06
2023-05-19T03:21:27.950Z,102363.16
2023-05-19T03:24:29.297Z,102364.84
2023-05-19T03:27:30.798Z,102365.00
2023-05-19T03:30:32.772Z,102369.81
2023-05-19T03:33:35.026Z,102361.00
2023-05-19T03:36:38.955Z,102361.81
2023-05-19T03:39:40.264Z,102360.38
2023-05-19T03:42:41.586Z,102365.47
2023-05-19T03:45:42.982Z,102368.25
2023-05-19T03:48:45.013Z,102361.81
2023-05-19T03:51:46.475Z,102362.66
2023-05-19T03:54:47.830Z,102356.38
2023-05-19T03:57:49.370Z,102354.56
2023-05-19T04:00:50.675Z,102363.84
2023-05-19T04:03:52.856Z,102371.41
2023-05-19T04:06:54.302Z,102367.72
2023-05-19T04:09:56.148Z,102362.28
2023-05-19T04:12:57.602Z,102353.19
2023-05-19T04:15:59.012Z,102361.97
2023-05-19T04:19:01.604Z,102354.50
2023-05-19T04:22:03.267Z,102361.66
2023-05-19T04:25:05.661Z,102357.50
2023-05-19T04:28:07.058Z,102360.25
2023-05-19T04:31:12.016Z,102367.88
2023-05-19T04:34:14.069Z,102367.88
2023-05-19T04:37:15.876Z,102358.59
2023-05-19T04:40:17.648Z,102361.75
2023-05-19T04:43:19.089Z,102366.00
2023-05-19T04:46:23.704Z,102362.78
2023-05-19T04:49:25.898Z,102375.09
2023-05-19T04:52:27.497Z,102361.47
2023-05-19T04:55:29.028Z,102365.75
2023-05-19T04:58:30.419Z,102373.00
2023-05-19T05:01:33.104Z,102375.63
2023-05-19T05:04:35.431Z,102368.91
2023-05-19T05:07:36.870Z,102362.59
2023-05-19T05:10:38.443Z,102367.28
2023-05-19T05:13:40.347Z,102363.78
2023-05-19T05:16:42.814Z,102369.31
2023-05-19T05:19:45.718Z,102365.13
2023-05-19T05:22:47.640Z,102370.56
2023-05-19T05:25:49.641Z,102368.66
2023-05-19T05:28:50.994Z,102361.56
2023-05-19T05:31:52.464Z,102368.38
2023-05-19T05:34:54.729Z,102374.63
2023-05-19T05:37:56.041Z,102369.47
2023-05-19T05:40:57.483Z,102366.06
2023-05-19T05:43:58.799Z,102361.06
2023-05-19T05:47:00.705Z,102363.81
2023-05-19T05:50:03.643Z,102363.97
2023-05-19T05:53:06.685Z,102365.84
2023-05-19T05:56:09.635Z,102365.03
2023-05-19T05:59:10.994Z,102364.66
2023-05-19T06:02:12.539Z,102362.28
2023-05-19T06:05:14.731Z,102352.44
2023-05-19T06:08:17.093Z,102363.00
2023-05-19T06:11:19.047Z,102357.47
2023-05-19T06:14:20.439Z,102356.66
2023-05-19T06:17:21.912Z,102354.69
2023-05-19T06:20:24.149Z,102362.50
2023-05-19T06:23:26.456Z,102362.72
2023-05-19T06:26:27.926Z,102366.13
2023-05-19T06:29:29.236Z,102369.22
2023-05-19T06:32:30.760Z,102365.97
2023-05-19T06:35:32.780Z,102365.09
2023-05-19T06:38:34.269Z,102361.28
2023-05-19T06:41:35.575Z,102369.91
2023-05-19T06:44:36.898Z,102361.16
2023-05-19T06:47:40.440Z,102358.63
2023-05-19T06:50:42.428Z,102361.66
2023-05-19T06:53:43.883Z,102358.97
2023-05-19T06:56:45.242Z,102357.09
2023-05-19T06:59:46.595Z,102356.84
2023-05-19T07:02:48.173Z,102361.84
2023-05-19T07:05:50.659Z,102363.25
2023-05-19T07:08:52.134Z,102368.50
2023-05-19T07:11:55.469Z,102370.19
2023-05-19T07:14:56.950Z,102363.72
2023-05-19T07:17:58.414Z,102367.06
2023-05-19T07:21:00.468Z,102368.38
2023-05-19T07:24:01.850Z,102365.50
2023-05-19T07:27:03.618Z,102359.38
2023-05-19T07:30:06.098Z,102350.03
2023-05-19T07:33:07.596Z,102349.97
2023-05-19T07:36:09.752Z,102358.09
2023-05-19T07:39:11.424Z,102347.03
2023-05-19T07:42:12.826Z,102344.72
2023-05-19T07:45:14.359Z,102346.88
2023-05-19T07:48:17.901Z,102342.50
2023-05-19T07:51:20.048Z,102346.88
2023-05-19T07:54:21.436Z,102342.28
2023-05-19T07:57:22.766Z,102335.88
2023-05-19T08:00:24.459Z,102337.69
2023-05-19T08:03:26.928Z,102345.00
2023-05-19T08:06:31.104Z,102342.59
2023-05-19T08:09:32.716Z,102337.97
2023-05-19T08:12:34.084Z,102338.97
2023-05-19T08:15:36.117Z,102339.53
2023-05-19T08:18:37.510Z,102333.25
2023-05-19T08:21:41.494Z,102341.69
2023-05-19T08:24:43.972Z,102348.28
2023-05-19T08:27:45.308Z,102342.38
2023-05-19T08:30:46.712Z,102345.56
2023-05-19T08:33:48.208Z,102344.72
2023-05-19T08:36:50.248Z,102341.25
2023-05-19T08:39:51.742Z,102338.84
2023-05-19T08:42:54.000Z,102339.06
2023-05-19T08:45:55.483Z,102336.44
2023-05-19T08:49:01.877Z,102336.06
2023-05-19T08:52:10.907Z,102324.00
2023-05-19T08:55:20.995Z,102331.13
2023-05-19T08:58:22.831Z,102314.63
2023-05-19T09:01:25.986Z,102313.09
2023-05-19T09:04:29.821Z,102324.34
2023-05-19T09:07:34.153Z,102316.38
2023-05-19T09:10:35.568Z,102308.16
2023-05-19T09:13:37.124Z,102310.97
2023-05-19T09:16:39.027Z,102315.91
2023-05-19T09:19:43.566Z,102312.19
2023-05-19T09:22:46.762Z,102307.31
2023-05-19T09:25:48.731Z,102309.41
2023-05-19T09:28:50.383Z,102303.47
2023-05-19T09:31:53.658Z,102299.81
2023-05-19T09:34:55.083Z,102294.31
2023-05-19T09:37:57.570Z,102288.13
2023-05-19T09:41:00.144Z,102290.25
2023-05-19T09:44:01.470Z,102287.09
2023-05-19T09:47:03.552Z,102293.56
2023-05-19T09:50:07.636Z,102286.94
2023-05-19T09:53:13.488Z,102279.69
2023-05-19T09:56:15.434Z,102276.78
2023-05-19T09:59:17.150Z,102276.50
2023-05-19T10:02:21.454Z,102264.22
2023-05-19T10:05:24.121Z,102266.97
2023-05-19T10:08:29.129Z,102269.44
2023-05-19T10:11:31.139Z,102256.22
2023-05-19T10:14:32.527Z,102260.63
2023-05-19T10:17:35.440Z,102269.44
2023-05-19T10:20:37.718Z,102261.78
2023-05-19T10:23:40.341Z,102255.34
2023-05-19T10:26:46.709Z,102270.25
2023-05-19T10:29:51.640Z,102256.41
2023-05-19T10:32:56.664Z,102257.34
2023-05-19T10:36:13.109Z,102261.78
2023-05-19T10:39:21.716Z,102250.56
2023-05-19T10:42:31.814Z,102248.91
2023-05-19T10:45:40.207Z,102246.91
2023-05-19T10:48:45.265Z,102247.41
2023-05-19T10:51:46.604Z,102244.69
2023-05-19T10:54:49.037Z,102260.22
2023-05-19T10:57:54.186Z,102245.03
2023-05-19T11:01:00.171Z,102244.63
2023-05-19T11:04:06.320Z,102236.97
2023-05-19T11:07:09.059Z,102230.34
2023-05-19T11:10:11.903Z,102233.09
2023-05-19T11:13:19.459Z,102234.53
2023-05-19T11:16:27.167Z,102237.72
2023-05-19T11:19:30.077Z,102241.50
2023-05-19T11:22:35.170Z,102235.91
2023-05-19T11:25:45.084Z,102230.47
2023-05-19T11:28:47.789Z,102220.78
2023-05-19T11:31:49.619Z,102229.88
2023-05-19T11:34:52.597Z,102229.78
2023-05-19T11:37:54.411Z,102228.56
2023-05-19T11:40:57.133Z,102228.09
2023-05-19T11:43:58.478Z,102222.94
2023-05-19T11:47:00.281Z,102213.53
2023-05-19T11:50:01.681Z,102222.75
2023-05-19T11:53:04.062Z,102212.59
2023-05-19T11:56:06.898Z,102215.28
2023-05-19T11:59:08.717Z,102217.28
2023-05-19T12:02:19.032Z,102216.97
2023-05-19T12:05:21.740Z,102210.97
2023-05-19T12:08:23.343Z,102207.94
2023-05-19T12:11:28.117Z,102219.38
2023-05-19T12:14:30.626Z,102223.28
2023-05-19T12:17:32.559Z,102222.94
2023-05-19T12:20:34.792Z,102209.63
2023-05-19T12:23:36.743Z,102219.41
2023-05-19T12:26:40.640Z,102214.44
2023-05-19T12:29:42.115Z,102215.88
2023-05-19T12:32:43.521Z,102205.81
2023-05-19T12:35:47.009Z,102202.44
2023-05-19T12:38:53.832Z,102193.97
2023-05-19T12:42:02.238Z,102195.63
2023-05-19T12:45:04.598Z,102182.28
2023-05-19T12:48:11.633Z,102193.41
2023-05-19T12:51:16.190Z,102195.50
2023-05-19T12:54:19.066Z,102190.94
2023-05-19T12:57:22.507Z,102177.88
2023-05-19T13:00:27.511Z,102192.47
2023-05-19T13:03:29.118Z,102181.13
2023-05-19T13:06:32.062Z,102178.84
2023-05-19T13:09:35.725Z,102192.59
2023-05-19T13:12:37.742Z,102170.91
2023-05-19T13:15:41.694Z,102183.59
2023-05-19T13:18:43.197Z,102174.59
2023-05-19T13:21:46.654Z,102173.47
2023-05-19T13:24:48.107Z,102183.22
2023-05-19T13:27:50.475Z,102187.59
2023-05-19T13:30:51.872Z,102175.41
2023-05-19T13:33:53.408Z,102175.84
2023-05-19T13:36:54.876Z,102170.16
2023-05-19T13:39:57.808Z,102174.09
2023-05-19T13:43:00.974Z,102182.53
2023-05-19T13:46:02.747Z,102175.31
2023-05-19T13:49:04.172Z,102168.94
2023-05-19T13:52:06.424Z,102182.41
2023-05-19T13:55:08.692Z,102166.06
2023-05-19T13:58:11.683Z,102166.97
2023-05-19T14:01:13.272Z,102168.88
2023-05-19T14:04:17.264Z,102171.44
2023-05-19T14:07:18.898Z,102179.44
2023-05-19T14:10:20.572Z,102169.66
2023-05-19T14:13:31.550Z,102171.75
2023-05-19T14:16:38.181Z,102172.50
2023-05-19T14:19:40.303Z,102170.53
2023-05-19T14:22:41.795Z,102172.94
2023-05-19T14:25:43.174Z,102174.16
2023-05-19T14:28:45.747Z,102179.31
2023-05-19T14:31:47.410Z,102174.69
2023-05-19T14:34:52.004Z,102176.97
2023-05-19T14:37:53.474Z,102178.38
2023-05-19T14:40:54.962Z,102187.22
2023-05-19T14:43:56.918Z,102179.91
2023-05-19T14:46:59.142Z,102177.09
2023-05-19T14:50:00.559Z,102195.63
2023-05-19T14:53:01.947Z,102184.25
2023-05-19T14:56:05.893Z,102185.31
2023-05-19T14:59:08.493Z,102184.06
2023-05-19T15:02:11.340Z,102183.41
2023-05-19T15:05:12.632Z,102186.22
2023-05-19T15:08:14.212Z,102186.22
2023-05-19T15:11:15.870Z,102168.25
2023-05-19T15:14:17.855Z,102182.38
2023-05-19T15:17:19.489Z,102190.72
2023-05-19T15:20:21.127Z,102190.72
2023-05-19T15:23:22.496Z,102185.75
2023-05-19T15:26:23.860Z,102182.38
2023-05-19T15:29:26.519Z,102186.06
2023-05-19T15:32:27.998Z,102175.78
2023-05-19T15:35:29.311Z,102182.47
2023-05-19T15:38:34.906Z,102181.06
2023-05-19T15:41:36.229Z,102174.13
2023-05-19T15:44:38.449Z,102160.88
2023-05-19T15:47:39.966Z,102182.41
2023-05-19T15:50:41.438Z,102169.88
2023-05-19T15:53:42.833Z,102166.59
2023-05-19T15:56:44.249Z,102164.59
2023-05-19T15:59:46.290Z,102172.06
2023-05-19T16:02:47.892Z,102171.53
2023-05-19T16:05:49.295Z,102163.81
2023-05-19T16:08:50.728Z,102170.75
2023-05-19T16:11:52.046Z,102161.59
2023-05-19T16:14:54.163Z,102174.38
2023-05-19T16:17:56.094Z,102171.63
2023-05-19T16:20:57.519Z,102168.06
2023-05-19T16:23:58.886Z,102157.75
2023-05-19T16:27:00.271Z,102152.28
2023-05-19T16:30:02.646Z,102148.31
2023-05-19T16:33:04.147Z,102155.06
2023-05-19T16:36:05.996Z,102149.78
2023-05-19T16:39:07.379Z,102150.63
2023-05-19T16:42:08.702Z,102160.38
2023-05-19T16:45:11.260Z,102170.41
2023-05-19T16:48:12.700Z,102156.75
2023-05-19T16:51:14.275Z,102156.19
2023-05-19T16:54:15.605Z,102157.31
2023-05-19T16:57:17.118Z,102162.25
2023-05-19T17:00:19.589Z,102165.66
2023-05-19T17:03:21.004Z,102176.19
2023-05-19T17:06:22.570Z,102175.63
2023-05-19T17:09:25.532Z,102180.63
2023-05-19T17:12:26.948Z,102172.25
2023-05-19T17:15:29.549Z,102170.78
2023-05-19T17:21:50.773Z,102173.75
2023-05-19T17:24:52.228Z,102175.97
2023-05-19T17:27:54.959Z,102173.97
2023-05-19T17:30:57.148Z,102176.50
2023-05-19T17:33:58.501Z,102171.16
2023-05-19T17:37:00.634Z,102178.69
2023-05-19T17:40:02.142Z,102178.06
2023-05-19T17:43:03.514Z,102180.38
2023-05-19T17:46:05.928Z,102182.28
2023-05-19T17:49:07.455Z,102176.13
2023-05-19T17:52:10.068Z,102176.38
2023-05-19T17:55:12.573Z,102176.94
2023-05-19T17:58:14.560Z,102188.59
2023-05-19T18:01:17.079Z,102167.47
2023-05-19T18:04:19.003Z,102166.41
2023-05-19T18:07:23.924Z,102173.47
2023-05-19T18:10:26.923Z,102169.31
2023-05-19T18:13:28.352Z,102165.31
2023-05-19T18:16:30.467Z,102170.28
2023-05-19T18:19:31.882Z,102173.72
2023-05-19T18:22:33.294Z,102168.63
2023-05-19T18:25:35.425Z,102178.88
2023-05-19T18:28:36.860Z,102180.19
2023-05-19T18:31:38.931Z,102183.38
2023-05-19T18:34:40.494Z,102186.81
2023-05-19T18:37:41.819Z,102190.03
2023-05-19T18:40:43.437Z,102190.03
2023-05-19T18:43:44.976Z,102191.03
2023-05-19T18:46:47.088Z,102202.59
2023-05-19T18:49:48.559Z,102208.66
2023-05-19T18:52:50.109Z,102204.19
2023-05-19T18:55:51.611Z,102204.53
2023-05-19T18:58:54.408Z,102205.44
2023-05-19T19:01:56.568Z,102204.00
2023-05-19T19:04:58.177Z,102207.66
2023-05-19T19:07:59.675Z,102195.78
2023-05-19T19:11:01.246Z,102197.94
2023-05-19T19:14:02.694Z,102197.16
2023-05-19T19:17:05.143Z,102208.00
2023-05-19T19:20:07.997Z,102203.56
2023-05-19T19:23:09.501Z,102209.44
2023-05-19T19:26:11.086Z,102213.53
2023-05-19T19:29:12.575Z,102216.88
2023-05-19T19:32:14.573Z,102216.97
2023-05-19T19:35:16.104Z,102207.19
2023-05-19T19:38:17.683Z,102219.78
2023-05-19T19:41:19.370Z,102217.78
2023-05-19T19:44:22.213Z,102218.16
2023-05-19T19:47:24.227Z,102205.34
2023-05-19T19:50:25.758Z,102212.25
2023-05-19T19:53:27.147Z,102216.63
2023-05-19T19:56:28.627Z,102210.63
2023-05-19T19:59:30.636Z,102214.06
2023-05-19T20:02:32.845Z,102219.53
2023-05-19T20:05:36.584Z,102220.47
2023-05-19T20:08:37.918Z,102222.38
2023-05-19T20:11:39.396Z,102229.69
2023-05-19T20:14:40.746Z,102233.06
2023-05-19T20:17:42.936Z,102227.28
2023-05-19T20:20:44.305Z,102230.06
2023-05-19T20:23:45.979Z,102235.25
2023-05-19T20:26:47.461Z,102235.06
2023-05-19T20:29:48.880Z,102237.19
2023-05-19T20:32:51.059Z,102236.56
2023-05-19T20:35:52.377Z,102244.78
2023-05-19T20:38:53.902Z,102237.38
2023-05-19T20:41:55.443Z,102241.25
2023-05-19T20:44:57.572Z,102252.63
2023-05-19T20:48:00.103Z,102246.44
2023-05-19T20:51:01.653Z,102249.69
2023-05-19T20:54:04.617Z,102247.56
2023-05-19T20:57:08.372Z,102243.25
2023-05-19T21:00:10.934Z,102249.03
2023-05-19T21:03:13.141Z,102246.06
2023-05-19T21:06:14.530Z,102248.75
2023-05-19T21:09:16.018Z,102242.88
2023-05-19T21:12:17.339Z,102252.97
2023-05-19T21:15:18.986Z,102250.22
2023-05-19T21:18:21.633Z,102259.50
2023-05-19T21:21:22.937Z,102265.00
2023-05-19T21:24:24.428Z,102256.22
2023-05-19T21:27:25.944Z,102261.31
2023-05-19T21:30:27.611Z,102262.50
2023-05-19T21:33:29.620Z,102263.94
2023-05-19T21:36:31.174Z,102271.13
2023-05-19T21:39:32.717Z,102280.13
2023-05-19T21:42:34.371Z,102272.34
2023-05-19T21:45:37.264Z,102275.81
2023-05-19T21:48:39.439Z,102273.16
2023-05-19T21:51:40.797Z,102272.19
2023-05-19T21:54:42.510Z,102275.16
2023-05-19T21:57:43.809Z,102276.38
2023-05-19T22:00:48.924Z,102277.66
2023-05-19T22:03:52.333Z,102275.13
2023-05-19T22:06:53.816Z,102265.31
2023-05-19T22:09:55.294Z,102280.28
2023-05-19T22:12:57.361Z,102278.38
2023-05-19T22:15:58.864Z,102282.81
2023-05-19T22:19:01.009Z,102283.88
2023-05-19T22:22:13.011Z,102286.47
2023-05-19T22:25:15.747Z,102288.72
2023-05-19T22:28:17.309Z,102293.25
2023-05-19T22:31:18.668Z,102291.94
2023-05-19T22:34:20.820Z,102291.19
2023-05-19T22:37:23.073Z,102292.34
2023-05-19T22:40:24.617Z,102289.47
2023-05-19T22:43:26.163Z,102280.81
2023-05-19T22:46:27.650Z,102288.47
2023-05-19T22:49:29.803Z,102290.94
2023-05-19T22:52:31.343Z,102293.47
2023-05-19T22:55:32.812Z,102293.69
2023-05-19T22:58:34.479Z,102292.63
2023-05-19T23:01:35.853Z,102292.78
2023-05-19T23:04:38.198Z,102287.28
2023-05-19T23:07:39.827Z,102282.84
2023-05-19T23:10:41.172Z,102289.56
2023-05-19T23:13:42.653Z,102285.06
2023-05-19T23:16:44.155Z,102283.53
2023-05-19T23:19:46.358Z,102285.69
2023-05-19T23:22:47.679Z,102285.91
2023-05-19T23:25:49.165Z,102283.31
2023-05-19T23:28:50.738Z,102285.28
2023-05-19T23:31:52.117Z,102280.63
2023-05-19T23:34:54.261Z,102281.94
2023-05-19T23:37:55.573Z,102292.88
2023-05-19T23:40:57.104Z,102289.25
2023-05-19T23:43:58.640Z,102289.88
2023-05-19T23:47:00.130Z,102291.25
2023-05-19T23:50:02.464Z,102283.69
2023-05-19T23:53:03.848Z,102288.34
2023-05-19T23:56:06.125Z,102290.19
2023-05-19T23:59:07.738Z,102282.91
